sensor_id;sensor_type;location;lat;lon;timestamp;pressure;altitude;pressure_sealevel;temperature;humidity
26563;BME280;14217;50.986;5.826;2023-03-21T00:04:22;101102.75;;;19.62;45.71
26563;BME280;14217;50.986;5.826;2023-03-21T00:09:25;101102.91;;;19.59;45.31
26563;BME280;14217;50.986;5.826;2023-03-21T00:14:27;101106.47;;;19.58;45.52
26563;BME280;14217;50.986;5.826;2023-03-21T00:19:31;101093.97;;;19.60;45.28
26563;BME280;14217;50.986;5.826;2023-03-21T00:24:35;101094.78;;;19.62;45.42
26563;BME280;14217;50.986;5.826;2023-03-21T00:29:37;101084.09;;;19.64;45.07
26563;BME280;14217;50.986;5.826;2023-03-21T00:34:40;101074.47;;;19.61;45.25
26563;BME280;14217;50.986;5.826;2023-03-21T00:39:54;101064.75;;;19.60;45.28
26563;BME280;14217;50.986;5.826;2023-03-21T00:44:56;101065.69;;;19.59;45.02
26563;BME280;14217;50.986;5.826;2023-03-21T00:49:58;101060.31;;;19.61;45.22
26563;BME280;14217;50.986;5.826;2023-03-21T00:55:00;101047.81;;;19.63;45.15
26563;BME280;14217;50.986;5.826;2023-03-21T01:00:03;101052.34;;;19.61;45.17
26563;BME280;14217;50.986;5.826;2023-03-21T01:05:08;101042.56;;;19.61;44.99
26563;BME280;14217;50.986;5.826;2023-03-21T01:10:12;101032.72;;;19.63;44.95
26563;BME280;14217;50.986;5.826;2023-03-21T01:15:14;101023.94;;;19.61;45.16
26563;BME280;14217;50.986;5.826;2023-03-21T01:20:16;101025.75;;;19.61;45.05
26563;BME280;14217;50.986;5.826;2023-03-21T01:25:18;101018.69;;;19.60;45.12
26563;BME280;14217;50.986;5.826;2023-03-21T01:30:23;101018.69;;;19.60;45.00
26563;BME280;14217;50.986;5.826;2023-03-21T01:35:29;101010.66;;;19.61;44.92
26563;BME280;14217;50.986;5.826;2023-03-21T01:40:44;101009.72;;;19.62;44.83
26563;BME280;14217;50.986;5.826;2023-03-21T01:51:11;100994.00;;;19.58;45.08
26563;BME280;14217;50.986;5.826;2023-03-21T01:56:22;100992.97;;;19.60;44.94
26563;BME280;14217;50.986;5.826;2023-03-21T02:01:25;100987.81;;;19.57;44.92
26563;BME280;14217;50.986;5.826;2023-03-21T02:11:32;100971.88;;;19.57;44.88
26563;BME280;14217;50.986;5.826;2023-03-21T02:27:24;100939.81;;;19.60;45.07
26563;BME280;14217;50.986;5.826;2023-03-21T02:48:54;100923.31;;;19.54;44.90
26563;BME280;14217;50.986;5.826;2023-03-21T02:54:00;100921.38;;;19.57;44.80
26563;BME280;14217;50.986;5.826;2023-03-21T02:59:26;100916.13;;;19.56;44.90
26563;BME280;14217;50.986;5.826;2023-03-21T03:04:28;100914.25;;;19.58;45.09
26563;BME280;14217;50.986;5.826;2023-03-21T03:25:46;100906.28;;;19.58;44.96
26563;BME280;14217;50.986;5.826;2023-03-21T03:30:51;100898.38;;;19.56;45.02
26563;BME280;14217;50.986;5.826;2023-03-21T03:36:11;100894.00;;;19.55;44.87
26563;BME280;14217;50.986;5.826;2023-03-21T03:41:33;100892.25;;;19.54;45.13
26563;BME280;14217;50.986;5.826;2023-03-21T03:47:01;100885.00;;;19.58;44.76
26563;BME280;14217;50.986;5.826;2023-03-21T03:52:16;100878.06;;;19.55;44.91
26563;BME280;14217;50.986;5.826;2023-03-21T03:57:19;100883.16;;;19.60;44.70
26563;BME280;14217;50.986;5.826;2023-03-21T04:02:21;100878.91;;;19.56;44.88
26563;BME280;14217;50.986;5.826;2023-03-21T04:07:24;100879.75;;;19.56;44.76
26563;BME280;14217;50.986;5.826;2023-03-21T04:12:26;100878.84;;;19.57;45.06
26563;BME280;14217;50.986;5.826;2023-03-21T04:17:28;100874.44;;;19.56;44.90
26563;BME280;14217;50.986;5.826;2023-03-21T04:22:30;100889.53;;;19.56;44.78
26563;BME280;14217;50.986;5.826;2023-03-21T04:27:34;100877.03;;;19.58;44.79
26563;BME280;14217;50.986;5.826;2023-03-21T04:32:37;100875.47;;;19.54;45.12
26563;BME280;14217;50.986;5.826;2023-03-21T04:37:40;100866.56;;;19.55;44.75
26563;BME280;14217;50.986;5.826;2023-03-21T04:42:43;100871.88;;;19.55;45.03
26563;BME280;14217;50.986;5.826;2023-03-21T04:47:45;100882.34;;;19.58;44.87
26563;BME280;14217;50.986;5.826;2023-03-21T04:52:47;100880.78;;;19.54;45.07
26563;BME280;14217;50.986;5.826;2023-03-21T04:57:49;100886.94;;;19.54;44.72
26563;BME280;14217;50.986;5.826;2023-03-21T05:02:51;100871.22;;;19.49;44.79
26563;BME280;14217;50.986;5.826;2023-03-21T05:07:54;100875.25;;;19.58;44.75
26563;BME280;14217;50.986;5.826;2023-03-21T05:12:56;100873.59;;;19.56;44.83
26563;BME280;14217;50.986;5.826;2023-03-21T05:17:58;100865.78;;;19.53;44.68
26563;BME280;14217;50.986;5.826;2023-03-21T05:23:10;100867.56;;;19.52;44.65
26563;BME280;14217;50.986;5.826;2023-03-21T05:28:12;100866.47;;;19.56;44.55
26563;BME280;14217;50.986;5.826;2023-03-21T05:33:14;100866.56;;;19.55;44.67
26563;BME280;14217;50.986;5.826;2023-03-21T05:38:16;100865.69;;;19.54;44.84
26563;BME280;14217;50.986;5.826;2023-03-21T05:43:18;100866.78;;;19.50;44.82
26563;BME280;14217;50.986;5.826;2023-03-21T05:48:20;100847.97;;;19.55;44.87
26563;BME280;14217;50.986;5.826;2023-03-21T05:53:22;100857.81;;;19.53;44.92
26563;BME280;14217;50.986;5.826;2023-03-21T05:58:24;100842.78;;;19.52;44.80
26563;BME280;14217;50.986;5.826;2023-03-21T06:03:26;100842.72;;;19.53;44.64
26563;BME280;14217;50.986;5.826;2023-03-21T06:08:29;100856.88;;;19.54;44.88
26563;BME280;14217;50.986;5.826;2023-03-21T06:13:32;100843.63;;;19.52;44.60
26563;BME280;14217;50.986;5.826;2023-03-21T06:18:34;100846.28;;;19.52;44.90
26563;BME280;14217;50.986;5.826;2023-03-21T06:23:36;100845.38;;;19.53;44.75
26563;BME280;14217;50.986;5.826;2023-03-21T06:28:39;100840.13;;;19.52;44.98
26563;BME280;14217;50.986;5.826;2023-03-21T06:33:40;100845.44;;;19.52;44.91
26563;BME280;14217;50.986;5.826;2023-03-21T06:38:43;100844.59;;;19.51;44.79
26563;BME280;14217;50.986;5.826;2023-03-21T06:43:45;100839.13;;;19.54;44.55
26563;BME280;14217;50.986;5.826;2023-03-21T06:48:47;100839.13;;;19.54;44.75
26563;BME280;14217;50.986;5.826;2023-03-21T06:53:49;100841.78;;;19.54;44.59
26563;BME280;14217;50.986;5.826;2023-03-21T06:58:51;100843.63;;;19.52;44.81
26563;BME280;14217;50.986;5.826;2023-03-21T07:03:53;100845.38;;;19.53;44.90
26563;BME280;14217;50.986;5.826;2023-03-21T07:08:57;100844.59;;;19.51;44.62
26563;BME280;14217;50.986;5.826;2023-03-21T07:13:59;100849.84;;;19.53;44.64
26563;BME280;14217;50.986;5.826;2023-03-21T07:19:01;100850.69;;;19.53;44.93
26563;BME280;14217;50.986;5.826;2023-03-21T07:24:03;100855.28;;;19.49;45.07
26563;BME280;14217;50.986;5.826;2023-03-21T07:29:05;100857.09;;;19.49;45.22
26563;BME280;14217;50.986;5.826;2023-03-21T07:34:07;100854.28;;;19.52;45.19
26563;BME280;14217;50.986;5.826;2023-03-21T07:39:09;100860.53;;;19.51;45.08
26563;BME280;14217;50.986;5.826;2023-03-21T07:44:11;100859.91;;;19.46;45.50
26563;BME280;14217;50.986;5.826;2023-03-21T07:49:13;100859.81;;;19.47;45.51
26563;BME280;14217;50.986;5.826;2023-03-21T07:54:15;100858.78;;;19.50;45.05
26563;BME280;14217;50.986;5.826;2023-03-21T07:59:20;100856.94;;;19.52;45.22
26563;BME280;14217;50.986;5.826;2023-03-21T08:04:22;100854.44;;;19.49;45.10
26563;BME280;14217;50.986;5.826;2023-03-21T08:09:24;100864.03;;;19.52;44.95
26563;BME280;14217;50.986;5.826;2023-03-21T08:14:26;100863.97;;;19.53;45.00
26563;BME280;14217;50.986;5.826;2023-03-21T08:19:28;100870.38;;;19.49;45.68
26563;BME280;14217;50.986;5.826;2023-03-21T08:24:30;100865.22;;;19.46;45.44
26563;BME280;14217;50.986;5.826;2023-03-21T08:29:32;100858.09;;;19.46;45.84
26563;BME280;14217;50.986;5.826;2023-03-21T08:34:34;100858.16;;;19.45;45.65
26563;BME280;14217;50.986;5.826;2023-03-21T08:39:36;100857.38;;;19.43;45.50
26563;BME280;14217;50.986;5.826;2023-03-21T08:44:39;100861.63;;;19.47;45.39
26563;BME280;14217;50.986;5.826;2023-03-21T08:49:42;100851.16;;;19.44;45.54
26563;BME280;14217;50.986;5.826;2023-03-21T08:54:46;100855.50;;;19.45;45.39
26563;BME280;14217;50.986;5.826;2023-03-21T08:59:49;100845.91;;;19.42;45.20
26563;BME280;14217;50.986;5.826;2023-03-21T09:04:51;100841.22;;;19.47;45.45
26563;BME280;14217;50.986;5.826;2023-03-21T09:09:59;100837.91;;;19.61;45.38
26563;BME280;14217;50.986;5.826;2023-03-21T09:15:23;100830.78;;;19.62;45.56
26563;BME280;14217;50.986;5.826;2023-03-21T09:20:26;100828.66;;;19.68;45.86
26563;BME280;14217;50.986;5.826;2023-03-21T09:25:31;100824.59;;;19.61;45.82
26563;BME280;14217;50.986;5.826;2023-03-21T09:30:35;100816.16;;;19.53;45.99
26563;BME280;14217;50.986;5.826;2023-03-21T09:35:37;100810.88;;;19.70;45.99
26563;BME280;14217;50.986;5.826;2023-03-21T09:51:13;100793.69;;;19.78;45.47
26563;BME280;14217;50.986;5.826;2023-03-21T09:56:18;100776.66;;;19.82;45.25
26563;BME280;14217;50.986;5.826;2023-03-21T10:01:26;100770.31;;;19.84;45.71
26563;BME280;14217;50.986;5.826;2023-03-21T10:06:30;100764.59;;;19.75;45.60
26563;BME280;14217;50.986;5.826;2023-03-21T10:11:46;100765.72;;;19.69;45.46
26563;BME280;14217;50.986;5.826;2023-03-21T10:16:54;100754.25;;;19.68;45.35
26563;BME280;14217;50.986;5.826;2023-03-21T10:21:58;100756.31;;;19.81;45.20
26563;BME280;14217;50.986;5.826;2023-03-21T10:27:08;100746.84;;;19.75;46.16
26563;BME280;14217;50.986;5.826;2023-03-21T10:32:13;100741.91;;;19.67;46.30
26563;BME280;14217;50.986;5.826;2023-03-21T10:37:16;100748.63;;;19.57;46.71
26563;BME280;14217;50.986;5.826;2023-03-21T10:42:25;100749.81;;;19.86;45.37
26563;BME280;14217;50.986;5.826;2023-03-21T10:47:30;100738.25;;;19.87;44.99
26563;BME280;14217;50.986;5.826;2023-03-21T10:52:34;100726.22;;;19.80;45.05
26563;BME280;14217;50.986;5.826;2023-03-21T10:57:37;100733.66;;;19.74;45.38
26563;BME280;14217;50.986;5.826;2023-03-21T11:02:40;100730.22;;;19.72;45.03
26563;BME280;14217;50.986;5.826;2023-03-21T11:07:42;100727.63;;;19.70;45.07
26563;BME280;14217;50.986;5.826;2023-03-21T11:12:46;100733.78;;;19.70;44.87
26563;BME280;14217;50.986;5.826;2023-03-21T11:17:48;100735.34;;;19.75;44.67
26563;BME280;14217;50.986;5.826;2023-03-21T11:22:53;100735.59;;;19.70;45.07
26563;BME280;14217;50.986;5.826;2023-03-21T11:27:56;100743.56;;;19.70;44.83
26563;BME280;14217;50.986;5.826;2023-03-21T11:33:01;100739.31;;;19.66;45.21
26563;BME280;14217;50.986;5.826;2023-03-21T11:38:05;100728.50;;;19.69;45.01
26563;BME280;14217;50.986;5.826;2023-03-21T11:43:27;100727.06;;;19.81;44.93
26563;BME280;14217;50.986;5.826;2023-03-21T11:48:39;100729.66;;;19.82;45.30
26563;BME280;14217;50.986;5.826;2023-03-21T12:04:53;100719.00;;;20.00;45.09
26563;BME280;14217;50.986;5.826;2023-03-21T12:15:44;100704.75;;;20.01;45.26
26563;BME280;14217;50.986;5.826;2023-03-21T12:20:58;100701.16;;;20.02;44.82
26563;BME280;14217;50.986;5.826;2023-03-21T12:37:07;100659.69;;;19.82;45.10
26563;BME280;14217;50.986;5.826;2023-03-21T12:42:34;100663.25;;;19.81;44.80
26563;BME280;14217;50.986;5.826;2023-03-21T12:47:44;100641.06;;;19.82;44.46
26563;BME280;14217;50.986;5.826;2023-03-21T12:52:54;100638.56;;;19.79;44.45
26563;BME280;14217;50.986;5.826;2023-03-21T13:03:10;100638.47;;;19.80;44.65
26563;BME280;14217;50.986;5.826;2023-03-21T13:08:22;100623.38;;;19.81;44.54
26563;BME280;14217;50.986;5.826;2023-03-21T13:13:52;100627.00;;;19.80;44.39
26563;BME280;14217;50.986;5.826;2023-03-21T13:19:15;100632.31;;;19.80;44.20
26563;BME280;14217;50.986;5.826;2023-03-21T13:29:46;100634.25;;;19.76;44.38
26563;BME280;14217;50.986;5.826;2023-03-21T13:34:54;100621.81;;;19.77;44.16
26563;BME280;14217;50.986;5.826;2023-03-21T13:40:03;100634.19;;;19.78;44.04
26563;BME280;14217;50.986;5.826;2023-03-21T13:45:32;100628.88;;;19.78;44.16
26563;BME280;14217;50.986;5.826;2023-03-21T13:50:51;100620.19;;;19.74;44.23
26563;BME280;14217;50.986;5.826;2023-03-21T14:01:34;100599.63;;;19.78;43.81
26563;BME280;14217;50.986;5.826;2023-03-21T14:06:56;100602.19;;;19.79;43.87
26563;BME280;14217;50.986;5.826;2023-03-21T14:12:00;100599.44;;;19.81;43.63
26563;BME280;14217;50.986;5.826;2023-03-21T14:17:24;100598.84;;;19.76;44.04
26563;BME280;14217;50.986;5.826;2023-03-21T14:22:28;100596.19;;;19.76;43.67
26563;BME280;14217;50.986;5.826;2023-03-21T14:27:32;100582.81;;;19.77;43.74
26563;BME280;14217;50.986;5.826;2023-03-21T14:32:34;100562.41;;;19.78;43.89
26563;BME280;14217;50.986;5.826;2023-03-21T14:37:39;100573.03;;;19.78;43.70
26563;BME280;14217;50.986;5.826;2023-03-21T14:42:45;100571.50;;;19.74;43.98
26563;BME280;14217;50.986;5.826;2023-03-21T14:48:00;100559.75;;;19.78;43.59
26563;BME280;14217;50.986;5.826;2023-03-21T14:53:05;100544.81;;;19.75;43.51
26563;BME280;14217;50.986;5.826;2023-03-21T14:58:11;100550.22;;;19.74;43.53
26563;BME280;14217;50.986;5.826;2023-03-21T15:03:16;100540.44;;;19.74;43.68
26563;BME280;14217;50.986;5.826;2023-03-21T15:08:22;100545.84;;;19.73;43.66
26563;BME280;14217;50.986;5.826;2023-03-21T15:13:32;100539.41;;;19.77;43.46
26563;BME280;14217;50.986;5.826;2023-03-21T15:18:37;100543.97;;;19.75;43.82
26563;BME280;14217;50.986;5.826;2023-03-21T15:23:45;100527.09;;;19.76;43.62
26563;BME280;14217;50.986;5.826;2023-03-21T15:28:49;100526.19;;;19.75;43.36
26563;BME280;14217;50.986;5.826;2023-03-21T15:33:56;100523.66;;;19.74;43.73
26563;BME280;14217;50.986;5.826;2023-03-21T15:39:04;100527.94;;;19.76;43.23
26563;BME280;14217;50.986;5.826;2023-03-21T15:44:13;100531.78;;;19.70;43.71
26563;BME280;14217;50.986;5.826;2023-03-21T15:49:17;100529.75;;;19.76;43.28
26563;BME280;14217;50.986;5.826;2023-03-21T15:54:46;100535.72;;;19.79;43.38
26563;BME280;14217;50.986;5.826;2023-03-21T15:59:55;100522.53;;;19.78;43.48
26563;BME280;14217;50.986;5.826;2023-03-21T16:05:18;100520.81;;;19.77;43.46
26563;BME280;14217;50.986;5.826;2023-03-21T16:10:29;100523.47;;;19.77;43.13
26563;BME280;14217;50.986;5.826;2023-03-21T16:15:32;100521.91;;;19.73;43.47
26563;BME280;14217;50.986;5.826;2023-03-21T16:20:38;100523.81;;;19.70;43.55
26563;BME280;14217;50.986;5.826;2023-03-21T16:25:42;100525.28;;;19.76;43.46
26563;BME280;14217;50.986;5.826;2023-03-21T16:30:44;100526.19;;;19.75;43.33
26563;BME280;14217;50.986;5.826;2023-03-21T16:35:46;100533.31;;;19.75;43.30
26563;BME280;14217;50.986;5.826;2023-03-21T16:40:48;100546.00;;;19.69;43.20
26563;BME280;14217;50.986;5.826;2023-03-21T16:45:52;100547.28;;;19.45;43.57
26563;BME280;14217;50.986;5.826;2023-03-21T16:50:54;100548.06;;;19.47;43.38
26563;BME280;14217;50.986;5.826;2023-03-21T16:55:56;100543.06;;;19.41;43.65
26563;BME280;14217;50.986;5.826;2023-03-21T17:01:03;100552.69;;;19.43;43.44
26563;BME280;14217;50.986;5.826;2023-03-21T17:06:05;100569.91;;;19.36;43.86
26563;BME280;14217;50.986;5.826;2023-03-21T17:11:09;100570.91;;;19.34;43.78
26563;BME280;14217;50.986;5.826;2023-03-21T17:16:13;100564.81;;;19.32;43.85
26563;BME280;14217;50.986;5.826;2023-03-21T17:21:22;100573.47;;;19.35;43.86
26563;BME280;14217;50.986;5.826;2023-03-21T17:26:26;100569.19;;;19.33;43.99
26563;BME280;14217;50.986;5.826;2023-03-21T17:31:32;100565.84;;;19.29;43.86
26563;BME280;14217;50.986;5.826;2023-03-21T17:36:37;100569.91;;;19.36;44.00
26563;BME280;14217;50.986;5.826;2023-03-21T17:41:39;100558.41;;;19.36;44.10
26563;BME280;14217;50.986;5.826;2023-03-21T17:49:44;100569.94;;;19.52;44.91
26563;BME280;14217;50.986;5.826;2023-03-21T17:54:47;100573.53;;;19.51;44.55
26563;BME280;14217;50.986;5.826;2023-03-21T17:59:49;100570.81;;;19.53;44.25
26563;BME280;14217;50.986;5.826;2023-03-21T18:04:51;100573.38;;;19.54;44.45
26563;BME280;14217;50.986;5.826;2023-03-21T18:09:53;100576.66;;;19.59;44.16
26563;BME280;14217;50.986;5.826;2023-03-21T18:14:56;100583.59;;;19.62;44.16
26563;BME280;14217;50.986;5.826;2023-03-21T18:19:59;100592.53;;;19.61;43.96
26563;BME280;14217;50.986;5.826;2023-03-21T18:25:02;100580.94;;;19.62;44.26
26563;BME280;14217;50.986;5.826;2023-03-21T18:30:08;100582.88;;;19.58;44.18
26563;BME280;14217;50.986;5.826;2023-03-21T18:35:34;100594.31;;;19.60;44.05
26563;BME280;14217;50.986;5.826;2023-03-21T18:40:36;100595.06;;;19.62;43.91
26563;BME280;14217;50.986;5.826;2023-03-21T18:45:38;100593.44;;;19.60;44.24
26563;BME280;14217;50.986;5.826;2023-03-21T18:50:41;100592.34;;;19.64;44.16
26563;BME280;14217;50.986;5.826;2023-03-21T18:55:42;100593.97;;;19.66;43.87
26563;BME280;14217;50.986;5.826;2023-03-21T19:00:49;100582.50;;;19.66;44.07
26563;BME280;14217;50.986;5.826;2023-03-21T19:05:56;100579.91;;;19.64;43.98
26563;BME280;14217;50.986;5.826;2023-03-21T19:10:59;100578.22;;;19.63;43.97
26563;BME280;14217;50.986;5.826;2023-03-21T19:16:06;100579.06;;;19.64;43.82
26563;BME280;14217;50.986;5.826;2023-03-21T19:21:12;100562.09;;;19.66;43.77
26563;BME280;14217;50.986;5.826;2023-03-21T19:26:14;100552.47;;;19.64;43.97
26563;BME280;14217;50.986;5.826;2023-03-21T19:31:16;100556.00;;;19.64;43.77
26563;BME280;14217;50.986;5.826;2023-03-21T19:36:21;100545.34;;;19.64;43.62
26563;BME280;14217;50.986;5.826;2023-03-21T19:41:24;100535.06;;;19.58;43.98
26563;BME280;14217;50.986;5.826;2023-03-21T19:46:26;100546.47;;;19.60;44.29
26563;BME280;14217;50.986;5.826;2023-03-21T19:51:30;100545.28;;;19.66;43.83
26563;BME280;14217;50.986;5.826;2023-03-21T19:56:33;100551.44;;;19.66;43.96
26563;BME280;14217;50.986;5.826;2023-03-21T20:01:35;100546.31;;;19.63;44.06
26563;BME280;14217;50.986;5.826;2023-03-21T20:06:37;100547.09;;;19.65;44.06
26563;BME280;14217;50.986;5.826;2023-03-21T20:11:39;100549.69;;;19.67;44.02
26563;BME280;14217;50.986;5.826;2023-03-21T20:16:41;100546.13;;;19.66;43.95
26563;BME280;14217;50.986;5.826;2023-03-21T20:21:44;100543.97;;;19.75;44.56
26563;BME280;14217;50.986;5.826;2023-03-21T20:26:56;100543.22;;;19.55;47.48
26563;BME280;14217;50.986;5.826;2023-03-21T20:31:59;100545.00;;;19.72;46.30
26563;BME280;14217;50.986;5.826;2023-03-21T20:37:01;100549.34;;;19.73;45.93
26563;BME280;14217;50.986;5.826;2023-03-21T20:42:06;100552.97;;;19.72;45.75
26563;BME280;14217;50.986;5.826;2023-03-21T20:47:09;100546.91;;;19.68;45.64
26563;BME280;14217;50.986;5.826;2023-03-21T20:52:11;100545.34;;;19.64;45.61
26563;BME280;14217;50.986;5.826;2023-03-21T20:57:33;100540.81;;;19.66;45.56
26563;BME280;14217;50.986;5.826;2023-03-21T21:02:41;100534.84;;;19.63;45.30
26563;BME280;14217;50.986;5.826;2023-03-21T21:07:43;100545.47;;;19.63;44.59
26563;BME280;14217;50.986;5.826;2023-03-21T21:12:46;100537.38;;;19.64;44.73
26563;BME280;14217;50.986;5.826;2023-03-21T21:17:48;100533.94;;;19.62;44.89
26563;BME280;14217;50.986;5.826;2023-03-21T21:23:08;100539.19;;;19.64;44.59
26563;BME280;14217;50.986;5.826;2023-03-21T21:28:24;100539.44;;;19.59;44.45
26563;BME280;14217;50.986;5.826;2023-03-21T21:33:29;100532.94;;;19.65;44.51
26563;BME280;14217;50.986;5.826;2023-03-21T21:38:35;100528.81;;;19.59;44.72
26563;BME280;14217;50.986;5.826;2023-03-21T21:43:37;100524.09;;;19.64;44.22
26563;BME280;14217;50.986;5.826;2023-03-21T21:48:39;100521.44;;;19.64;44.16
26563;BME280;14217;50.986;5.826;2023-03-21T21:53:41;100518.63;;;19.67;44.03
26563;BME280;14217;50.986;5.826;2023-03-21T21:58:43;100509.69;;;19.68;44.53
26563;BME280;14217;50.986;5.826;2023-03-21T22:03:48;100511.50;;;19.68;44.70
26563;BME280;14217;50.986;5.826;2023-03-21T22:08:52;100509.66;;;19.70;44.53
26563;BME280;14217;50.986;5.826;2023-03-21T22:13:54;100507.00;;;19.70;44.42
26563;BME280;14217;50.986;5.826;2023-03-21T22:18:56;100502.53;;;19.70;44.35
26563;BME280;14217;50.986;5.826;2023-03-21T22:23:57;100513.38;;;19.66;44.37
26563;BME280;14217;50.986;5.826;2023-03-21T22:29:00;100510.50;;;19.70;44.08
26563;BME280;14217;50.986;5.826;2023-03-21T22:34:02;100510.53;;;19.69;44.12
26563;BME280;14217;50.986;5.826;2023-03-21T22:39:03;100511.44;;;19.69;44.13
26563;BME280;14217;50.986;5.826;2023-03-21T22:44:05;100507.00;;;19.70;44.24
26563;BME280;14217;50.986;5.826;2023-03-21T22:49:07;100512.34;;;19.68;44.14
26563;BME280;14217;50.986;5.826;2023-03-21T22:54:09;100508.91;;;19.66;44.23
26563;BME280;14217;50.986;5.826;2023-03-21T22:59:11;100500.72;;;19.71;43.88
26563;BME280;14217;50.986;5.826;2023-03-21T23:04:14;100503.53;;;19.68;44.07
26563;BME280;14217;50.986;5.826;2023-03-21T23:09:16;100491.09;;;19.68;44.07
26563;BME280;14217;50.986;5.826;2023-03-21T23:14:19;100492.91;;;19.68;44.02
26563;BME280;14217;50.986;5.826;2023-03-21T23:19:21;100486.50;;;19.72;43.68
26563;BME280;14217;50.986;5.826;2023-03-21T23:24:25;100482.19;;;19.69;43.77
26563;BME280;14217;50.986;5.826;2023-03-21T23:29:27;100478.66;;;19.69;44.00
26563;BME280;14217;50.986;5.826;2023-03-21T23:34:29;100480.66;;;19.65;44.00
26563;BME280;14217;50.986;5.826;2023-03-21T23:39:33;100472.44;;;19.70;44.07
26563;BME280;14217;50.986;5.826;2023-03-21T23:44:35;100469.84;;;19.68;43.93
26563;BME280;14217;50.986;5.826;2023-03-21T23:49:37;100463.75;;;19.66;43.94
26563;BME280;14217;50.986;5.826;2023-03-21T23:54:39;100454.06;;;19.65;44.20
26563;BME280;14217;50.986;5.826;2023-03-21T23:59:41;100451.34;;;19.67;43.90
